Home > Products > Valid Products > TAF

000
FTUS43 KICT 281100
TAFHUT
TAF
KHUT 281120Z 2812/2912 03009KT P6SM SCT200
     FM290200 08004KT P6SM SCT120=



000
FTUS43 KICT 281100
TAFCNU
TAF
KCNU 281120Z 2812/2912 36008KT P6SM SCT250
     FM290200 VRB03KT P6SM SCT150=



000
FTUS43 KICT 281100
TAFICT
TAF
KICT 281120Z 2812/2912 03011KT P6SM SCT200
     FM290200 08004KT P6SM SCT120=



000
FTUS43 KICT 281100
TAFRSL
TAF
KRSL 281120Z 2812/2912 01007KT P6SM SCT100 SCT200
     FM290300 VRB06KT P6SM BKN100=



000
FTUS43 KICT 281100
TAFSLN
TAF
KSLN 281120Z 2812/2912 VRB06KT P6SM SCT200
     FM281500 36007KT P6SM SCT150
     FM290100 VRB05KT P6SM SCT100=



000
FTUS43 KICT 280500
TAFICT
TAF
KICT 280520Z 2806/2906 04008KT P6SM FEW250
     FM290200 08004KT P6SM SCT120=



000
FTUS43 KICT 280500
TAFHUT
TAF
KHUT 280520Z 2806/2906 04008KT P6SM FEW250
     FM290000 10005KT P6SM SCT120=



000
FTUS43 KICT 280500
TAFSLN
TAF
KSLN 280520Z 2806/2906 VRB04KT P6SM SKC
     FM281500 05007KT P6SM SCT100
     FM290300 10005KT P6SM SCT100=



000
FTUS43 KICT 280500
TAFRSL
TAF
KRSL 280520Z 2806/2906 07005KT P6SM SCT200
     FM280700 VRB04KT P6SM SKC
     FM281400 10006KT P6SM SCT100=



000
FTUS43 KICT 280500
TAFCNU
TAF
KCNU 280520Z 2806/2906 36008KT P6SM SKC
     FM281500 01010KT P6SM SCT100=



000
FTUS43 KICT 280100 AAA
TAFSLN
TAF AMD
KSLN 280102Z 2801/2824 03010KT P6SM SCT120
     FM280500 VRB04KT P6SM SKC
     FM281500 07007KT P6SM SCT100=



000
FTUS43 KICT 272300
TAFCNU
TAF
KCNU 272334Z 2800/2824 36007KT P6SM SCT200
     FM281500 01010KT P6SM SCT100=



000
FTUS43 KICT 272300
TAFICT
TAF
KICT 272334Z 2800/2824 02011KT P6SM FEW120
     FM280600 04012KT P6SM SCT100=



000
FTUS43 KICT 272300
TAFSLN
TAF
KSLN 272334Z 2800/2824 01014G20KT P6SM SCT120
     FM280500 VRB04KT P6SM SKC
     FM281500 07007KT P6SM SCT100=



000
FTUS43 KICT 272300
TAFRSL
TAF
KRSL 272334Z 2800/2824 04014KT P6SM SCT200
     FM280700 VRB04KT P6SM SKC
     FM281400 10006KT P6SM SCT100=



000
FTUS43 KICT 272300
TAFHUT
TAF
KHUT 272334Z 2800/2824 01011KT P6SM SKC
     FM280700 04007KT P6SM SCT100=



000
FTUS43 KICT 272100 AAA
TAFRSL
TAF AMD
KRSL 272120Z 2721/2818 36014KT P6SM SCT200
     FM280100 02007KT P6SM SKC=



000
FTUS43 KICT 272100 AAA
TAFSLN
TAF AMD
KSLN 272119Z 2721/2818 01014G20KT P6SM BKN200
     FM280100 01006KT P6SM SKC=



000
FTUS43 KICT 271700
TAFCNU
TAF
KCNU 271725Z 2718/2818 01011KT P6SM BKN100
     FM280000 01007KT P6SM SKC=



000
FTUS43 KICT 271700
TAFHUT
TAF
KHUT 271725Z 2718/2818 01011KT P6SM VCSH FEW025 BKN090
     FM280100 02007KT P6SM SCT200=



000
FTUS43 KICT 271700
TAFSLN
TAF
KSLN 271725Z 2718/2818 01013KT P6SM BKN200
     FM280100 01006KT P6SM SKC=



000
FTUS43 KICT 271700
TAFICT
TAF
KICT 271725Z 2718/2818 01011KT P6SM VCSH FEW025 BKN090
      TEMPO 2718/2721 6SM SHRA SCT025 OVC080
     FM280100 02007KT P6SM SCT200=



000
FTUS43 KICT 271700
TAFRSL
TAF
KRSL 271725Z 2718/2818 03014KT P6SM SCT200
     FM280100 02007KT P6SM SKC=



000
FTUS43 KICT 271100
TAFHUT
TAF
KHUT 271124Z 2712/2812 04010KT P6SM VCTS BKN040CB BKN100
      TEMPO 2712/2714 5SM -TSRA BR BKN030CB
     FM271400 02014KT P6SM BKN080
     FM280100 02010KT P6SM BKN120=



000
FTUS43 KICT 271100
TAFCNU
TAF
KCNU 271124Z 2712/2812 VRB03KT P6SM SCT110 BKN250
     FM271500 03014G19KT P6SM SCT080 BKN120
     FM272300 36010KT P6SM BKN120=



000
FTUS43 KICT 271100
TAFRSL
TAF
KRSL 271124Z 2712/2812 04012KT P6SM BKN080
     FM271500 03014G19KT P6SM BKN120
     FM280100 01010KT P6SM BKN120=



000
FTUS43 KICT 271100
TAFICT
TAF
KICT 271124Z 2712/2812 04014G19KT P6SM VCTS SCT060CB BKN120
      TEMPO 2712/2714 VRB25G35KT 5SM -TSRA BR BKN035CB
     FM271400 02014KT P6SM BKN080
     FM280100 02010KT P6SM BKN080=



000
FTUS43 KICT 271100
TAFSLN
TAF
KSLN 271124Z 2712/2812 02012KT P6SM BKN080
     FM271500 02014G19KT P6SM BKN120
     FM272200 01010KT P6SM BKN120=



000
FTUS43 KICT 270900 AAA
TAFHUT
TAF AMD
KHUT 270924Z 2709/2806 03014KT P6SM VCTS SCT060CB BKN100
      TEMPO 2709/2712 5SM -TSRA BR BKN035CB
     FM271200 02010KT P6SM BKN120
     FM280100 02010KT P6SM BKN120=



000
FTUS43 KICT 270700 AAA
TAFRSL
TAF AMD
KRSL 270756Z 2708/2806 02013KT P6SM VCTS SCT030CB BKN080
      TEMPO 2708/2710 5SM -TSRA BR BKN030CB
     FM271500 03014G19KT P6SM BKN120
     FM280100 01010KT P6SM BKN120=



000
FTUS43 KICT 270700 AAA
TAFSLN
TAF AMD
KSLN 270721Z 2707/2806 03013KT P6SM VCTS SCT060CB BKN120
     FM271000 02012KT P6SM BKN120
     FM271500 02014G19KT P6SM BKN120
     FM272200 01010KT P6SM BKN120=



000
FTUS43 KICT 270500
TAFSLN
TAF
KSLN 270520Z 2706/2806 03013KT P6SM SCT120
     FM271500 02014G19KT P6SM BKN120
     FM272200 01010KT P6SM BKN120=



000
FTUS43 KICT 270500
TAFRSL
TAF
KRSL 270520Z 2706/2806 02013KT P6SM SCT120
     FM271500 03014G19KT P6SM BKN120
     FM280100 01010KT P6SM BKN120=



000
FTUS43 KICT 270500
TAFCNU
TAF
KCNU 270520Z 2706/2806 19008KT P6SM SCT110
     FM270900 VRB03KT P6SM SCT110
     FM271300 03014G19KT P6SM SCT080 BKN120
     FM272300 36010KT P6SM BKN120=



000
FTUS43 KICT 270500
TAFHUT
TAF
KHUT 270520Z 2706/2806 VRB05KT P6SM BKN100
     FM270800 03014KT P6SM BKN120
     FM280100 02010KT P6SM BKN120=



000
FTUS43 KICT 270500
TAFICT
TAF
KICT 270520Z 2706/2806 18006KT P6SM BKN120
     FM270700 VRB05KT P6SM BKN100
     FM271100 04014G19KT P6SM BKN080
     FM280100 02010KT P6SM BKN080=



000
FTUS43 KICT 262300
TAFHUT
TAF
KHUT 262331Z 2700/2724 VRB05KT P6SM BKN100
     FM270400 VRB05KT P6SM VCTS BKN100CB
     FM270900 03014KT P6SM BKN120=



000
FTUS43 KICT 262300
TAFCNU
TAF
KCNU 262331Z 2700/2724 19015G22KT P6SM VCTS BKN130CB
     FM270100 19008KT P6SM SCT110
     FM270900 VRB03KT P6SM SCT110
     FM271300 02010KT P6SM FEW040 BKN120=



000
FTUS43 KICT 262300
TAFRSL
TAF
KRSL 262331Z 2700/2724 VRB05KT P6SM VCTS BKN120CB
     FM270600 03013KT P6SM SCT120
     FM272100 01012KT P6SM BKN150=



000
FTUS43 KICT 262300
TAFICT
TAF
KICT 262331Z 2700/2724 19010KT P6SM VCTS BKN100CB
     FM270200 18005KT P6SM BKN100
     FM270600 01009KT P6SM VCTS BKN100CB
     FM271000 02013KT P6SM BKN120=



000
FTUS43 KICT 262300
TAFSLN
TAF
KSLN 262331Z 2700/2724 VRB05KT P6SM SCT130
     FM270100 36009KT P6SM VCTS BKN120CB
     FM270600 03013KT P6SM SCT110
     FM271800 02014KT P6SM SCT050 BKN120=



000
FTUS43 KICT 262200 AAA
TAFHUT
TAF AMD
KHUT 262210Z 2622/2718 24008KT P6SM SCT130
     FM270000 19008KT P6SM SCT100
     FM270400 01009KT P6SM VCTS BKN100CB
     FM271400 02013KT P6SM FEW040 BKN120=



000
FTUS43 KICT 261700
TAFCNU
TAF
KCNU 261732Z 2618/2718 21015G22KT P6SM BKN130
     FM270100 19008KT P6SM SCT110
     FM270900 VRB03KT P6SM SCT110
     FM271400 01010KT P6SM FEW040 BKN120=



000
FTUS43 KICT 261700
TAFICT
TAF
KICT 261732Z 2618/2718 21016G23KT P6SM SCT130
     FM270100 19010KT P6SM SCT100
     FM270600 01009KT P6SM VCTS BKN100CB
     FM271400 02013KT P6SM FEW040 BKN120=



000
FTUS43 KICT 261700
TAFHUT
TAF
KHUT 261732Z 2618/2718 22014G20KT P6SM SCT130
     FM270000 19008KT P6SM SCT100
     FM270400 01009KT P6SM VCTS BKN100CB
     FM271400 02013KT P6SM FEW040 BKN120=



000
FTUS43 KICT 261700
TAFRSL
TAF
KRSL 261732Z 2618/2718 31008KT P6SM SCT130
     FM262300 01011KT P6SM VCTS BKN080CB
     FM271200 02013KT P6SM SCT120=



000
FTUS43 KICT 261700
TAFSLN
TAF
KSLN 261732Z 2618/2718 23011KT P6SM SCT130
     FM270200 36009KT P6SM VCTS BKN090CB
     FM271300 01013KT P6SM SCT110=



000
FTUS43 KICT 261100
TAFCNU
TAF
KCNU 261127Z 2612/2712 18013KT P6SM SCT150 BKN250
     FM261500 21017G25KT P6SM SCT150
     FM270200 18010KT P6SM BKN200
     FM270900 29005KT P6SM BKN200=



000
FTUS43 KICT 261100
TAFICT
TAF
KICT 261127Z 2612/2712 18014KT P6SM SCT150 BKN250
     FM261500 22017G24KT P6SM SCT150
     FM270100 18006KT P6SM BKN200
     FM270900 02008KT P6SM BKN150=



000
FTUS43 KICT 261100
TAFRSL
TAF
KRSL 261127Z 2612/2712 21008KT P6SM BKN150
     FM262100 34008KT P6SM SCT100 BKN200
     FM270000 02008KT P6SM VCTS SCT080CB BKN120
     FM270600 02008KT P6SM BKN120=



000
FTUS43 KICT 261100
TAFSLN
TAF
KSLN 261127Z 2612/2712 19012KT P6SM BKN200
     FM261500 23011KT P6SM BKN150
     FM270000 35008KT P6SM VCTS SCT080CB BKN120
     FM270600 02008KT P6SM BKN120=



000
FTUS43 KICT 261100
TAFHUT
TAF
KHUT 261127Z 2612/2712 18011KT P6SM SCT150 BKN250
     FM261500 23014G22KT P6SM BKN150
     FM262100 29007KT P6SM BKN150
     FM270200 02005KT P6SM VCTS SCT080CB BKN150
     FM270900 02005KT P6SM BKN150=



000
FTUS43 KICT 260500
TAFCNU
TAF
KCNU 260520Z 2606/2706 18013KT P6SM SCT150
     FM261500 21017G25KT P6SM SCT150
     FM270200 18010KT P6SM BKN200=



000
FTUS43 KICT 260500
TAFHUT
TAF
KHUT 260520Z 2606/2706 19011KT P6SM SCT150
     FM261500 23014G22KT P6SM BKN150
     FM270100 17007KT P6SM BKN150=



000
FTUS43 KICT 260500
TAFSLN
TAF
KSLN 260520Z 2606/2706 19012KT P6SM BKN200
     FM261500 23011KT P6SM BKN150
     FM270000 35008KT P6SM VCTS SCT080CB BKN120=



000
FTUS43 KICT 260500
TAFRSL
TAF
KRSL 260520Z 2606/2706 VRB06KT P6SM FEW120 BKN200
     FM260700 VRB06KT P6SM VCTS SCT090CB BKN120
     FM261000 21008KT P6SM BKN150
     FM262100 34008KT P6SM FEW100 BKN200
     FM270000 02008KT P6SM VCTS SCT080CB BKN120=



000
FTUS43 KICT 260500
TAFICT
TAF
KICT 260520Z 2606/2706 18014KT P6SM SCT150
     FM261500 22017G24KT P6SM SCT150
     FM270100 18009KT P6SM BKN200=



000
FTUS43 KICT 252300
TAFRSL
TAF
KRSL 252320Z 2600/2624 VRB06KT P6SM BKN150
     FM260900 21008KT P6SM BKN150
     FM262100 34008KT P6SM VCTS SCT100CB BKN150=



000
FTUS43 KICT 252300
TAFCNU
TAF
KCNU 252320Z 2600/2624 19016G22KT P6SM SCT150
     FM260100 18011KT P6SM SCT150
     FM261500 21016G24KT P6SM SCT150=



000
FTUS43 KICT 252300
TAFHUT
TAF
KHUT 252320Z 2600/2624 21017G23KT P6SM SCT150
     FM260200 18012KT P6SM SCT150
     FM261600 21014G20KT P6SM BKN150=



000
FTUS43 KICT 252300
TAFSLN
TAF
KSLN 252320Z 2600/2624 21013KT P6SM BKN150
     FM260200 18012KT P6SM BKN150
     FM261300 22010KT P6SM BKN150=



000
FTUS43 KICT 252300
TAFICT
TAF
KICT 252320Z 2600/2624 19017G23KT P6SM SCT150
     FM260200 18014KT P6SM SCT150
     FM261600 21017G24KT P6SM BKN150=



000
FTUS43 KICT 251700
TAFCNU
TAF
KCNU 251734Z 2518/2618 20018G26KT P6SM SCT250
     FM260100 18013KT P6SM SCT250
     FM261600 20016G22KT P6SM SCT250=



000
FTUS43 KICT 251700
TAFRSL
TAF
KRSL 251734Z 2518/2618 23018G25KT P6SM SCT250
     FM252100 22008KT P6SM SCT080 BKN150
     FM260300 VRB03KT P6SM BKN250=



000
FTUS43 KICT 251700
TAFSLN
TAF
KSLN 251734Z 2518/2618 22019G27KT P6SM SCT250
     FM260100 19015KT P6SM SCT080 BKN150
     FM260400 19011KT P6SM BKN150=



000
FTUS43 KICT 251700
TAFHUT
TAF
KHUT 251734Z 2518/2618 21020G26KT P6SM SCT250
     FM260100 18014KT P6SM SCT150
     FM260600 18015KT P6SM SCT250
     FM261600 21014G20KT P6SM SCT250=



000
FTUS43 KICT 251700
TAFICT
TAF
KICT 251734Z 2518/2618 20020G27KT P6SM SCT250
     FM260100 18016KT P6SM SCT250
     FM261500 20015G22KT P6SM BKN250=



    US Dept of Commerce
    National Oceanic and Atmospheric Administration
    National Weather Service
    1325 East West Highway
    Silver Spring, MD 20910
    Page Author: NWS Internet Services Team
Disclaimer
Information Quality
Credits
Glossary
Privacy Policy
Freedom of Information Act (FOIA)
About Us
Career Opportunities